sensor_id;sensor_type;location;lat;lon;timestamp;temperature;humidity
22645;DHT22;11489;50.834;6.752;2023-03-01T00:01:31;-1.20;80.70
22645;DHT22;11489;50.834;6.752;2023-03-01T00:03:58;-1.30;80.60
22645;DHT22;11489;50.834;6.752;2023-03-01T00:06:26;-1.30;80.50
22645;DHT22;11489;50.834;6.752;2023-03-01T00:08:52;-1.40;80.40
22645;DHT22;11489;50.834;6.752;2023-03-01T00:13:46;-1.40;80.30
22645;DHT22;11489;50.834;6.752;2023-03-01T00:16:24;-1.50;80.20
22645;DHT22;11489;50.834;6.752;2023-03-01T00:18:50;-1.60;80.20
22645;DHT22;11489;50.834;6.752;2023-03-01T00:21:17;-1.70;80.20
22645;DHT22;11489;50.834;6.752;2023-03-01T00:23:42;-1.70;80.30
22645;DHT22;11489;50.834;6.752;2023-03-01T00:26:10;-1.80;80.40
22645;DHT22;11489;50.834;6.752;2023-03-01T00:28:37;-1.90;80.40
22645;DHT22;11489;50.834;6.752;2023-03-01T00:31:09;-1.90;80.60
22645;DHT22;11489;50.834;6.752;2023-03-01T00:33:35;-2.00;80.90
22645;DHT22;11489;50.834;6.752;2023-03-01T00:36:02;-2.00;81.00
22645;DHT22;11489;50.834;6.752;2023-03-01T00:38:28;-2.00;81.10
22645;DHT22;11489;50.834;6.752;2023-03-01T00:40:54;-2.10;81.20
22645;DHT22;11489;50.834;6.752;2023-03-01T00:43:19;-2.10;81.30
22645;DHT22;11489;50.834;6.752;2023-03-01T00:45:45;-2.20;81.40
22645;DHT22;11489;50.834;6.752;2023-03-01T00:48:11;-2.20;81.60
22645;DHT22;11489;50.834;6.752;2023-03-01T00:50:36;-2.30;81.80
22645;DHT22;11489;50.834;6.752;2023-03-01T00:53:02;-2.30;82.00
22645;DHT22;11489;50.834;6.752;2023-03-01T00:55:28;-2.30;82.40
22645;DHT22;11489;50.834;6.752;2023-03-01T00:57:54;-2.30;82.80
22645;DHT22;11489;50.834;6.752;2023-03-01T01:00:20;-2.20;84.00
22645;DHT22;11489;50.834;6.752;2023-03-01T01:02:46;-2.20;83.60
22645;DHT22;11489;50.834;6.752;2023-03-01T01:05:12;-2.10;83.80
22645;DHT22;11489;50.834;6.752;2023-03-01T01:07:38;-2.00;83.90
22645;DHT22;11489;50.834;6.752;2023-03-01T01:10:04;-2.00;83.90
22645;DHT22;11489;50.834;6.752;2023-03-01T01:12:30;-1.90;83.90
22645;DHT22;11489;50.834;6.752;2023-03-01T01:14:55;-1.80;84.00
22645;DHT22;11489;50.834;6.752;2023-03-01T01:17:21;-1.70;84.30
22645;DHT22;11489;50.834;6.752;2023-03-01T01:19:47;-1.70;84.20
22645;DHT22;11489;50.834;6.752;2023-03-01T01:22:12;-1.60;84.20
22645;DHT22;11489;50.834;6.752;2023-03-01T01:24:38;-1.50;84.20
22645;DHT22;11489;50.834;6.752;2023-03-01T01:27:04;-1.50;84.10
22645;DHT22;11489;50.834;6.752;2023-03-01T01:29:29;-1.50;83.90
22645;DHT22;11489;50.834;6.752;2023-03-01T01:31:55;-1.40;83.90
22645;DHT22;11489;50.834;6.752;2023-03-01T01:34:22;-1.30;83.80
22645;DHT22;11489;50.834;6.752;2023-03-01T01:36:49;-1.30;83.60
22645;DHT22;11489;50.834;6.752;2023-03-01T01:39:15;-1.30;83.60
22645;DHT22;11489;50.834;6.752;2023-03-01T01:41:41;-1.30;83.50
22645;DHT22;11489;50.834;6.752;2023-03-01T01:44:12;-1.20;83.50
22645;DHT22;11489;50.834;6.752;2023-03-01T01:47:02;-1.20;83.60
22645;DHT22;11489;50.834;6.752;2023-03-01T01:49:38;-1.20;83.30
22645;DHT22;11489;50.834;6.752;2023-03-01T01:52:18;-1.20;83.60
22645;DHT22;11489;50.834;6.752;2023-03-01T01:54:57;-1.20;83.40
22645;DHT22;11489;50.834;6.752;2023-03-01T01:57:39;-1.10;83.50
22645;DHT22;11489;50.834;6.752;2023-03-01T02:00:17;-1.10;83.40
22645;DHT22;11489;50.834;6.752;2023-03-01T02:02:44;-1.10;83.30
22645;DHT22;11489;50.834;6.752;2023-03-01T02:05:28;-1.10;83.40
22645;DHT22;11489;50.834;6.752;2023-03-01T02:07:58;-1.10;83.40
22645;DHT22;11489;50.834;6.752;2023-03-01T02:10:25;-1.10;83.50
22645;DHT22;11489;50.834;6.752;2023-03-01T02:12:52;-1.10;83.60
22645;DHT22;11489;50.834;6.752;2023-03-01T02:15:18;-1.10;83.70
22645;DHT22;11489;50.834;6.752;2023-03-01T02:17:44;-1.10;83.60
22645;DHT22;11489;50.834;6.752;2023-03-01T02:22:39;-1.10;83.30
22645;DHT22;11489;50.834;6.752;2023-03-01T02:27:59;-1.10;83.30
22645;DHT22;11489;50.834;6.752;2023-03-01T02:30:27;-1.20;83.10
22645;DHT22;11489;50.834;6.752;2023-03-01T02:32:56;-1.20;82.80
22645;DHT22;11489;50.834;6.752;2023-03-01T02:35:35;-1.20;82.60
22645;DHT22;11489;50.834;6.752;2023-03-01T02:38:03;-1.30;82.20
22645;DHT22;11489;50.834;6.752;2023-03-01T02:40:33;-1.30;82.00
22645;DHT22;11489;50.834;6.752;2023-03-01T02:42:59;-1.40;81.80
22645;DHT22;11489;50.834;6.752;2023-03-01T02:45:26;-1.50;81.60
22645;DHT22;11489;50.834;6.752;2023-03-01T02:47:56;-1.60;81.40
22645;DHT22;11489;50.834;6.752;2023-03-01T02:53:08;-1.80;81.40
22645;DHT22;11489;50.834;6.752;2023-03-01T02:55:36;-1.90;81.40
22645;DHT22;11489;50.834;6.752;2023-03-01T02:58:03;-2.10;81.50
22645;DHT22;11489;50.834;6.752;2023-03-01T03:00:33;-2.20;81.60
22645;DHT22;11489;50.834;6.752;2023-03-01T03:03:01;-2.20;81.80
22645;DHT22;11489;50.834;6.752;2023-03-01T03:05:29;-2.40;81.80
22645;DHT22;11489;50.834;6.752;2023-03-01T03:07:56;-2.50;81.80
22645;DHT22;11489;50.834;6.752;2023-03-01T03:10:24;-2.60;81.90
22645;DHT22;11489;50.834;6.752;2023-03-01T03:13:05;-2.60;82.10
22645;DHT22;11489;50.834;6.752;2023-03-01T03:15:33;-2.70;82.20
22645;DHT22;11489;50.834;6.752;2023-03-01T03:18:02;-2.80;82.70
22645;DHT22;11489;50.834;6.752;2023-03-01T03:20:28;-2.80;83.30
22645;DHT22;11489;50.834;6.752;2023-03-01T03:22:55;-2.90;83.50
22645;DHT22;11489;50.834;6.752;2023-03-01T03:25:22;-2.90;83.60
22645;DHT22;11489;50.834;6.752;2023-03-01T03:27:49;-3.00;83.60
22645;DHT22;11489;50.834;6.752;2023-03-01T03:30:18;-3.00;83.60
22645;DHT22;11489;50.834;6.752;2023-03-01T03:32:46;-3.00;83.60
22645;DHT22;11489;50.834;6.752;2023-03-01T03:35:29;-3.10;83.50
22645;DHT22;11489;50.834;6.752;2023-03-01T03:37:56;-3.20;83.50
22645;DHT22;11489;50.834;6.752;2023-03-01T03:40:34;-3.20;83.50
22645;DHT22;11489;50.834;6.752;2023-03-01T03:43:01;-3.30;83.50
22645;DHT22;11489;50.834;6.752;2023-03-01T03:45:26;-3.30;83.50
22645;DHT22;11489;50.834;6.752;2023-03-01T03:47:52;-3.30;83.50
22645;DHT22;11489;50.834;6.752;2023-03-01T03:50:18;-3.40;83.50
22645;DHT22;11489;50.834;6.752;2023-03-01T03:52:44;-3.50;83.50
22645;DHT22;11489;50.834;6.752;2023-03-01T03:55:11;-3.50;83.60
22645;DHT22;11489;50.834;6.752;2023-03-01T03:57:38;-3.60;83.70
22645;DHT22;11489;50.834;6.752;2023-03-01T04:00:05;-3.60;83.70
22645;DHT22;11489;50.834;6.752;2023-03-01T04:02:44;-3.70;83.70
22645;DHT22;11489;50.834;6.752;2023-03-01T04:05:13;-3.70;83.80
22645;DHT22;11489;50.834;6.752;2023-03-01T04:07:40;-3.80;83.80
22645;DHT22;11489;50.834;6.752;2023-03-01T04:10:12;-3.80;83.80
22645;DHT22;11489;50.834;6.752;2023-03-01T04:12:38;-3.90;83.80
22645;DHT22;11489;50.834;6.752;2023-03-01T04:15:06;-3.90;83.80
22645;DHT22;11489;50.834;6.752;2023-03-01T04:17:45;-4.00;83.80
22645;DHT22;11489;50.834;6.752;2023-03-01T04:20:13;-4.00;83.90
22645;DHT22;11489;50.834;6.752;2023-03-01T04:22:39;-4.10;84.00
22645;DHT22;11489;50.834;6.752;2023-03-01T04:25:06;-4.10;84.20
22645;DHT22;11489;50.834;6.752;2023-03-01T04:27:33;-4.10;84.40
22645;DHT22;11489;50.834;6.752;2023-03-01T04:29:59;-4.20;84.50
22645;DHT22;11489;50.834;6.752;2023-03-01T04:32:25;-4.20;84.70
22645;DHT22;11489;50.834;6.752;2023-03-01T04:34:51;-4.20;84.90
22645;DHT22;11489;50.834;6.752;2023-03-01T04:37:16;-4.20;85.00
22645;DHT22;11489;50.834;6.752;2023-03-01T04:39:42;-4.20;85.00
22645;DHT22;11489;50.834;6.752;2023-03-01T04:42:11;-4.20;85.00
22645;DHT22;11489;50.834;6.752;2023-03-01T04:44:37;-4.20;85.00
22645;DHT22;11489;50.834;6.752;2023-03-01T04:47:03;-4.30;84.90
22645;DHT22;11489;50.834;6.752;2023-03-01T04:49:28;-4.30;84.90
22645;DHT22;11489;50.834;6.752;2023-03-01T04:51:54;-4.30;84.90
22645;DHT22;11489;50.834;6.752;2023-03-01T04:54:20;-4.40;84.80
22645;DHT22;11489;50.834;6.752;2023-03-01T04:56:45;-4.40;84.80
22645;DHT22;11489;50.834;6.752;2023-03-01T04:59:11;-4.40;84.80
22645;DHT22;11489;50.834;6.752;2023-03-01T05:01:38;-4.50;84.80
22645;DHT22;11489;50.834;6.752;2023-03-01T05:04:04;-4.50;84.90
22645;DHT22;11489;50.834;6.752;2023-03-01T05:06:31;-4.50;85.00
22645;DHT22;11489;50.834;6.752;2023-03-01T05:08:57;-4.50;85.10
22645;DHT22;11489;50.834;6.752;2023-03-01T05:11:23;-4.60;85.10
22645;DHT22;11489;50.834;6.752;2023-03-01T05:13:49;-4.60;85.10
22645;DHT22;11489;50.834;6.752;2023-03-01T05:16:20;-4.60;85.10
22645;DHT22;11489;50.834;6.752;2023-03-01T05:18:45;-4.60;85.10
22645;DHT22;11489;50.834;6.752;2023-03-01T05:21:13;-4.60;85.10
22645;DHT22;11489;50.834;6.752;2023-03-01T05:23:41;-4.70;85.10
22645;DHT22;11489;50.834;6.752;2023-03-01T05:26:08;-4.70;85.10
22645;DHT22;11489;50.834;6.752;2023-03-01T05:28:34;-4.70;85.10
22645;DHT22;11489;50.834;6.752;2023-03-01T05:31:00;-4.80;85.20
22645;DHT22;11489;50.834;6.752;2023-03-01T05:33:26;-4.80;85.30
22645;DHT22;11489;50.834;6.752;2023-03-01T05:35:53;-4.80;85.40
22645;DHT22;11489;50.834;6.752;2023-03-01T05:38:20;-4.80;85.50
22645;DHT22;11489;50.834;6.752;2023-03-01T05:40:47;-4.80;85.70
22645;DHT22;11489;50.834;6.752;2023-03-01T05:43:15;-4.80;85.60
22645;DHT22;11489;50.834;6.752;2023-03-01T05:45:41;-4.80;85.60
22645;DHT22;11489;50.834;6.752;2023-03-01T05:48:08;-4.80;85.60
22645;DHT22;11489;50.834;6.752;2023-03-01T05:50:37;-4.90;85.50
22645;DHT22;11489;50.834;6.752;2023-03-01T05:53:14;-4.90;85.50
22645;DHT22;11489;50.834;6.752;2023-03-01T05:55:41;-4.90;85.60
22645;DHT22;11489;50.834;6.752;2023-03-01T05:58:10;-4.90;85.60
22645;DHT22;11489;50.834;6.752;2023-03-01T06:00:36;-5.00;85.50
22645;DHT22;11489;50.834;6.752;2023-03-01T06:03:02;-5.00;85.40
22645;DHT22;11489;50.834;6.752;2023-03-01T06:05:29;-5.00;85.40
22645;DHT22;11489;50.834;6.752;2023-03-01T06:07:55;-5.00;85.40
22645;DHT22;11489;50.834;6.752;2023-03-01T06:10:21;-5.10;85.30
22645;DHT22;11489;50.834;6.752;2023-03-01T06:12:47;-5.10;85.40
22645;DHT22;11489;50.834;6.752;2023-03-01T06:15:15;-5.10;85.40
22645;DHT22;11489;50.834;6.752;2023-03-01T06:17:42;-5.20;85.40
22645;DHT22;11489;50.834;6.752;2023-03-01T06:20:17;-5.20;85.60
22645;DHT22;11489;50.834;6.752;2023-03-01T06:22:43;-5.20;85.70
22645;DHT22;11489;50.834;6.752;2023-03-01T06:25:10;-5.20;85.80
22645;DHT22;11489;50.834;6.752;2023-03-01T06:27:37;-5.20;86.00
22645;DHT22;11489;50.834;6.752;2023-03-01T06:30:03;-5.20;86.10
22645;DHT22;11489;50.834;6.752;2023-03-01T06:32:29;-5.20;86.20
22645;DHT22;11489;50.834;6.752;2023-03-01T06:34:56;-5.20;86.30
22645;DHT22;11489;50.834;6.752;2023-03-01T06:37:24;-5.20;86.40
22645;DHT22;11489;50.834;6.752;2023-03-01T06:39:50;-5.20;86.50
22645;DHT22;11489;50.834;6.752;2023-03-01T06:42:15;-5.20;86.60
22645;DHT22;11489;50.834;6.752;2023-03-01T06:44:42;-5.10;86.80
22645;DHT22;11489;50.834;6.752;2023-03-01T06:47:07;-5.10;86.80
22645;DHT22;11489;50.834;6.752;2023-03-01T06:49:33;-5.10;86.90
22645;DHT22;11489;50.834;6.752;2023-03-01T06:51:58;-5.10;86.90
22645;DHT22;11489;50.834;6.752;2023-03-01T06:54:24;-5.00;87.00
22645;DHT22;11489;50.834;6.752;2023-03-01T06:56:50;-5.00;87.10
22645;DHT22;11489;50.834;6.752;2023-03-01T06:59:16;-5.00;87.10
22645;DHT22;11489;50.834;6.752;2023-03-01T07:01:42;-4.90;87.20
22645;DHT22;11489;50.834;6.752;2023-03-01T07:04:10;-4.90;87.30
22645;DHT22;11489;50.834;6.752;2023-03-01T07:06:36;-4.90;87.30
22645;DHT22;11489;50.834;6.752;2023-03-01T07:09:02;-4.90;87.30
22645;DHT22;11489;50.834;6.752;2023-03-01T07:11:27;-4.80;87.40
22645;DHT22;11489;50.834;6.752;2023-03-01T07:13:53;-4.80;87.40
22645;DHT22;11489;50.834;6.752;2023-03-01T07:16:19;-4.80;87.40
22645;DHT22;11489;50.834;6.752;2023-03-01T07:18:45;-4.70;87.50
22645;DHT22;11489;50.834;6.752;2023-03-01T07:21:13;-4.70;87.60
22645;DHT22;11489;50.834;6.752;2023-03-01T07:23:39;-4.60;87.90
22645;DHT22;11489;50.834;6.752;2023-03-01T07:26:04;-4.60;88.10
22645;DHT22;11489;50.834;6.752;2023-03-01T07:28:30;-4.50;88.40
22645;DHT22;11489;50.834;6.752;2023-03-01T07:31:01;-4.40;88.60
22645;DHT22;11489;50.834;6.752;2023-03-01T07:33:27;-4.40;88.70
22645;DHT22;11489;50.834;6.752;2023-03-01T07:36:00;-4.30;88.90
22645;DHT22;11489;50.834;6.752;2023-03-01T07:38:27;-4.20;89.00
22645;DHT22;11489;50.834;6.752;2023-03-01T07:40:58;-4.10;89.00
22645;DHT22;11489;50.834;6.752;2023-03-01T07:43:24;-4.00;89.00
22645;DHT22;11489;50.834;6.752;2023-03-01T07:45:50;-3.90;89.00
22645;DHT22;11489;50.834;6.752;2023-03-01T07:48:15;-3.80;89.10
22645;DHT22;11489;50.834;6.752;2023-03-01T07:50:41;-3.80;89.10
22645;DHT22;11489;50.834;6.752;2023-03-01T07:53:07;-3.70;89.10
22645;DHT22;11489;50.834;6.752;2023-03-01T07:55:33;-3.60;89.20
22645;DHT22;11489;50.834;6.752;2023-03-01T07:57:59;-3.50;89.90
22645;DHT22;11489;50.834;6.752;2023-03-01T08:00:24;-3.40;89.30
22645;DHT22;11489;50.834;6.752;2023-03-01T08:02:50;-3.30;89.40
22645;DHT22;11489;50.834;6.752;2023-03-01T08:05:16;-3.30;89.40
22645;DHT22;11489;50.834;6.752;2023-03-01T08:07:42;-3.10;89.60
22645;DHT22;11489;50.834;6.752;2023-03-01T08:10:08;-3.10;89.60
22645;DHT22;11489;50.834;6.752;2023-03-01T08:12:34;-3.00;89.50
22645;DHT22;11489;50.834;6.752;2023-03-01T08:14:59;-2.90;89.50
22645;DHT22;11489;50.834;6.752;2023-03-01T08:17:25;-2.80;89.60
22645;DHT22;11489;50.834;6.752;2023-03-01T08:19:51;-2.70;89.70
22645;DHT22;11489;50.834;6.752;2023-03-01T08:22:16;-2.60;89.80
22645;DHT22;11489;50.834;6.752;2023-03-01T08:24:42;-2.50;90.00
22645;DHT22;11489;50.834;6.752;2023-03-01T08:27:08;-2.40;90.10
22645;DHT22;11489;50.834;6.752;2023-03-01T08:29:34;-2.30;90.20
22645;DHT22;11489;50.834;6.752;2023-03-01T08:32:00;-2.20;90.30
22645;DHT22;11489;50.834;6.752;2023-03-01T08:34:25;-2.10;90.40
22645;DHT22;11489;50.834;6.752;2023-03-01T08:36:51;-1.90;90.50
22645;DHT22;11489;50.834;6.752;2023-03-01T08:39:19;-1.70;90.60
22645;DHT22;11489;50.834;6.752;2023-03-01T08:41:46;-1.60;90.60
22645;DHT22;11489;50.834;6.752;2023-03-01T08:44:12;-1.50;90.50
22645;DHT22;11489;50.834;6.752;2023-03-01T08:46:40;-1.30;90.40
22645;DHT22;11489;50.834;6.752;2023-03-01T08:49:14;-1.10;90.30
22645;DHT22;11489;50.834;6.752;2023-03-01T08:51:41;-1.00;90.20
22645;DHT22;11489;50.834;6.752;2023-03-01T08:54:11;-0.90;90.10
22645;DHT22;11489;50.834;6.752;2023-03-01T08:56:38;-0.80;89.80
22645;DHT22;11489;50.834;6.752;2023-03-01T08:59:03;-0.70;89.60
22645;DHT22;11489;50.834;6.752;2023-03-01T09:01:29;-0.60;89.40
22645;DHT22;11489;50.834;6.752;2023-03-01T09:03:55;-0.50;89.30
22645;DHT22;11489;50.834;6.752;2023-03-01T09:06:21;-0.40;89.30
22645;DHT22;11489;50.834;6.752;2023-03-01T09:08:49;-0.30;89.40
22645;DHT22;11489;50.834;6.752;2023-03-01T09:11:17;-0.20;89.40
22645;DHT22;11489;50.834;6.752;2023-03-01T09:13:44;0.00;89.40
22645;DHT22;11489;50.834;6.752;2023-03-01T09:16:12;0.10;89.40
22645;DHT22;11489;50.834;6.752;2023-03-01T09:18:38;0.30;89.40
22645;DHT22;11489;50.834;6.752;2023-03-01T09:21:15;0.40;89.30
22645;DHT22;11489;50.834;6.752;2023-03-01T09:23:47;0.60;89.40
22645;DHT22;11489;50.834;6.752;2023-03-01T09:26:14;0.80;89.70
22645;DHT22;11489;50.834;6.752;2023-03-01T09:28:42;0.90;89.90
22645;DHT22;11489;50.834;6.752;2023-03-01T09:31:10;1.10;90.10
22645;DHT22;11489;50.834;6.752;2023-03-01T09:33:38;1.40;90.40
22645;DHT22;11489;50.834;6.752;2023-03-01T09:36:06;1.70;90.50
22645;DHT22;11489;50.834;6.752;2023-03-01T09:38:33;2.00;90.60
22645;DHT22;11489;50.834;6.752;2023-03-01T09:41:00;2.30;90.60
22645;DHT22;11489;50.834;6.752;2023-03-01T09:46:11;3.00;90.70
22645;DHT22;11489;50.834;6.752;2023-03-01T09:48:50;3.20;90.60
22645;DHT22;11489;50.834;6.752;2023-03-01T09:51:26;3.60;90.30
22645;DHT22;11489;50.834;6.752;2023-03-01T09:53:52;3.90;90.00
22645;DHT22;11489;50.834;6.752;2023-03-01T09:56:24;4.10;90.10
22645;DHT22;11489;50.834;6.752;2023-03-01T09:59:36;4.40;89.60
22645;DHT22;11489;50.834;6.752;2023-03-01T10:04:35;4.90;89.10
22645;DHT22;11489;50.834;6.752;2023-03-01T10:09:56;5.50;88.10
22645;DHT22;11489;50.834;6.752;2023-03-01T10:12:27;5.70;88.50
22645;DHT22;11489;50.834;6.752;2023-03-01T10:17:36;6.20;87.70
22645;DHT22;11489;50.834;6.752;2023-03-01T10:22:42;6.70;86.50
22645;DHT22;11489;50.834;6.752;2023-03-01T10:25:14;6.90;88.20
22645;DHT22;11489;50.834;6.752;2023-03-01T10:30:13;7.30;86.10
22645;DHT22;11489;50.834;6.752;2023-03-01T10:32:45;7.50;86.50
22645;DHT22;11489;50.834;6.752;2023-03-01T10:38:06;7.80;84.40
22645;DHT22;11489;50.834;6.752;2023-03-01T10:40:35;7.90;82.50
22645;DHT22;11489;50.834;6.752;2023-03-01T10:43:04;8.00;84.70
22645;DHT22;11489;50.834;6.752;2023-03-01T10:50:29;8.00;82.30
22645;DHT22;11489;50.834;6.752;2023-03-01T10:53:00;7.90;82.90
22645;DHT22;11489;50.834;6.752;2023-03-01T10:55:36;7.90;83.00
22645;DHT22;11489;50.834;6.752;2023-03-01T11:00:45;8.00;83.00
22645;DHT22;11489;50.834;6.752;2023-03-01T11:03:22;8.10;81.70
22645;DHT22;11489;50.834;6.752;2023-03-01T11:08:42;8.30;82.00
22645;DHT22;11489;50.834;6.752;2023-03-01T11:11:24;8.40;80.40
22645;DHT22;11489;50.834;6.752;2023-03-01T11:13:58;8.50;82.00
22645;DHT22;11489;50.834;6.752;2023-03-01T11:16:38;8.60;82.40
22645;DHT22;11489;50.834;6.752;2023-03-01T11:24:56;8.50;80.70
22645;DHT22;11489;50.834;6.752;2023-03-01T11:27:25;8.50;81.10
22645;DHT22;11489;50.834;6.752;2023-03-01T11:30:25;8.50;80.20
22645;DHT22;11489;50.834;6.752;2023-03-01T11:35:36;8.50;80.00
22645;DHT22;11489;50.834;6.752;2023-03-01T11:38:17;8.60;82.00
22645;DHT22;11489;50.834;6.752;2023-03-01T11:40:55;8.70;82.60
22645;DHT22;11489;50.834;6.752;2023-03-01T11:46:42;9.10;81.50
22645;DHT22;11489;50.834;6.752;2023-03-01T12:03:16;9.70;80.10
22645;DHT22;11489;50.834;6.752;2023-03-01T12:11:22;9.80;79.00
22645;DHT22;11489;50.834;6.752;2023-03-01T12:14:01;9.90;77.10
22645;DHT22;11489;50.834;6.752;2023-03-01T12:19:41;10.00;75.00
22645;DHT22;11489;50.834;6.752;2023-03-01T12:22:31;9.90;76.10
22645;DHT22;11489;50.834;6.752;2023-03-01T12:28:09;9.70;76.00
22645;DHT22;11489;50.834;6.752;2023-03-01T12:33:15;9.40;75.90
22645;DHT22;11489;50.834;6.752;2023-03-01T12:36:12;9.30;76.60
22645;DHT22;11489;50.834;6.752;2023-03-01T12:41:46;9.10;74.60
22645;DHT22;11489;50.834;6.752;2023-03-01T12:49:54;8.80;74.80
22645;DHT22;11489;50.834;6.752;2023-03-01T12:52:45;8.70;74.70
22645;DHT22;11489;50.834;6.752;2023-03-01T12:58:17;8.60;74.20
22645;DHT22;11489;50.834;6.752;2023-03-01T13:09:19;8.80;74.60
22645;DHT22;11489;50.834;6.752;2023-03-01T13:11:47;8.80;74.10
22645;DHT22;11489;50.834;6.752;2023-03-01T13:16:51;8.90;72.50
22645;DHT22;11489;50.834;6.752;2023-03-01T13:19:28;8.90;74.70
22645;DHT22;11489;50.834;6.752;2023-03-01T13:21:58;9.00;74.20
22645;DHT22;11489;50.834;6.752;2023-03-01T13:24:41;9.10;75.40
22645;DHT22;11489;50.834;6.752;2023-03-01T13:30:01;9.10;73.60
22645;DHT22;11489;50.834;6.752;2023-03-01T13:32:35;9.10;72.00
22645;DHT22;11489;50.834;6.752;2023-03-01T13:37:41;9.00;72.20
22645;DHT22;11489;50.834;6.752;2023-03-01T13:45:25;9.10;72.40
22645;DHT22;11489;50.834;6.752;2023-03-01T13:48:15;9.00;72.30
22645;DHT22;11489;50.834;6.752;2023-03-01T13:50:50;9.00;72.30
22645;DHT22;11489;50.834;6.752;2023-03-01T13:53:19;9.00;71.80
22645;DHT22;11489;50.834;6.752;2023-03-01T13:55:49;9.00;72.10
22645;DHT22;11489;50.834;6.752;2023-03-01T13:58:23;9.00;72.20
22645;DHT22;11489;50.834;6.752;2023-03-01T14:01:05;9.00;71.80
22645;DHT22;11489;50.834;6.752;2023-03-01T14:03:33;9.10;71.00
22645;DHT22;11489;50.834;6.752;2023-03-01T14:06:04;9.00;72.20
22645;DHT22;11489;50.834;6.752;2023-03-01T14:08:33;9.00;72.20
22645;DHT22;11489;50.834;6.752;2023-03-01T14:19:16;9.10;71.40
22645;DHT22;11489;50.834;6.752;2023-03-01T14:21:43;9.20;71.20
22645;DHT22;11489;50.834;6.752;2023-03-01T14:24:20;9.20;72.90
22645;DHT22;11489;50.834;6.752;2023-03-01T14:26:47;9.20;71.50
22645;DHT22;11489;50.834;6.752;2023-03-01T14:32:17;9.30;70.80
22645;DHT22;11489;50.834;6.752;2023-03-01T14:34:46;9.20;70.70
22645;DHT22;11489;50.834;6.752;2023-03-01T14:39:44;9.20;70.20
22645;DHT22;11489;50.834;6.752;2023-03-01T14:42:09;9.20;70.80
22645;DHT22;11489;50.834;6.752;2023-03-01T14:44:35;9.10;71.00
22645;DHT22;11489;50.834;6.752;2023-03-01T14:47:03;9.10;71.40
22645;DHT22;11489;50.834;6.752;2023-03-01T14:49:31;9.10;71.50
22645;DHT22;11489;50.834;6.752;2023-03-01T14:52:06;9.20;71.50
22645;DHT22;11489;50.834;6.752;2023-03-01T14:54:41;9.20;70.50
22645;DHT22;11489;50.834;6.752;2023-03-01T14:57:20;9.20;69.90
22645;DHT22;11489;50.834;6.752;2023-03-01T14:59:48;9.20;69.50
22645;DHT22;11489;50.834;6.752;2023-03-01T15:02:17;9.20;70.00
22645;DHT22;11489;50.834;6.752;2023-03-01T15:04:57;9.20;69.00
22645;DHT22;11489;50.834;6.752;2023-03-01T15:07:30;9.10;68.90
22645;DHT22;11489;50.834;6.752;2023-03-01T15:09:58;9.10;68.70
22645;DHT22;11489;50.834;6.752;2023-03-01T15:14:50;9.00;69.80
22645;DHT22;11489;50.834;6.752;2023-03-01T15:17:37;9.00;69.70
22645;DHT22;11489;50.834;6.752;2023-03-01T15:20:13;9.00;68.30
22645;DHT22;11489;50.834;6.752;2023-03-01T15:22:44;9.00;69.80
22645;DHT22;11489;50.834;6.752;2023-03-01T15:25:18;9.00;70.10
22645;DHT22;11489;50.834;6.752;2023-03-01T15:27:46;9.00;69.70
22645;DHT22;11489;50.834;6.752;2023-03-01T15:30:20;9.00;69.30
22645;DHT22;11489;50.834;6.752;2023-03-01T15:32:46;9.00;69.10
22645;DHT22;11489;50.834;6.752;2023-03-01T15:38:35;9.00;68.10
22645;DHT22;11489;50.834;6.752;2023-03-01T15:41:21;9.00;68.70
22645;DHT22;11489;50.834;6.752;2023-03-01T15:43:48;9.00;69.90
22645;DHT22;11489;50.834;6.752;2023-03-01T15:46:47;9.00;68.90
22645;DHT22;11489;50.834;6.752;2023-03-01T15:49:39;9.00;68.10
22645;DHT22;11489;50.834;6.752;2023-03-01T15:52:21;8.90;67.60
22645;DHT22;11489;50.834;6.752;2023-03-01T15:55:04;8.90;68.60
22645;DHT22;11489;50.834;6.752;2023-03-01T15:57:31;8.90;67.90
22645;DHT22;11489;50.834;6.752;2023-03-01T15:59:56;8.80;67.70
22645;DHT22;11489;50.834;6.752;2023-03-01T16:02:23;8.80;68.40
22645;DHT22;11489;50.834;6.752;2023-03-01T16:04:50;8.80;68.50
22645;DHT22;11489;50.834;6.752;2023-03-01T16:07:16;8.80;68.70
22645;DHT22;11489;50.834;6.752;2023-03-01T16:09:41;8.80;68.00
22645;DHT22;11489;50.834;6.752;2023-03-01T16:12:16;8.70;67.40
22645;DHT22;11489;50.834;6.752;2023-03-01T16:14:42;8.70;67.00
22645;DHT22;11489;50.834;6.752;2023-03-01T16:17:08;8.60;68.10
22645;DHT22;11489;50.834;6.752;2023-03-01T16:19:36;8.60;68.50
22645;DHT22;11489;50.834;6.752;2023-03-01T16:22:03;8.50;68.50
22645;DHT22;11489;50.834;6.752;2023-03-01T16:24:29;8.50;68.60
22645;DHT22;11489;50.834;6.752;2023-03-01T16:26:55;8.40;68.20
22645;DHT22;11489;50.834;6.752;2023-03-01T16:29:21;8.30;68.20
22645;DHT22;11489;50.834;6.752;2023-03-01T16:31:46;8.30;68.30
22645;DHT22;11489;50.834;6.752;2023-03-01T16:34:13;8.20;68.40
22645;DHT22;11489;50.834;6.752;2023-03-01T16:36:38;8.10;68.30
22645;DHT22;11489;50.834;6.752;2023-03-01T16:39:04;8.10;68.30
22645;DHT22;11489;50.834;6.752;2023-03-01T16:41:30;8.00;68.50
22645;DHT22;11489;50.834;6.752;2023-03-01T16:43:56;7.90;68.30
22645;DHT22;11489;50.834;6.752;2023-03-01T16:46:24;7.90;68.40
22645;DHT22;11489;50.834;6.752;2023-03-01T16:48:50;7.80;68.50
22645;DHT22;11489;50.834;6.752;2023-03-01T16:51:17;7.70;68.80
22645;DHT22;11489;50.834;6.752;2023-03-01T16:53:43;7.70;68.90
22645;DHT22;11489;50.834;6.752;2023-03-01T16:56:10;7.60;68.90
22645;DHT22;11489;50.834;6.752;2023-03-01T16:58:38;7.50;68.40
22645;DHT22;11489;50.834;6.752;2023-03-01T17:01:23;7.40;68.60
22645;DHT22;11489;50.834;6.752;2023-03-01T17:03:50;7.30;68.60
22645;DHT22;11489;50.834;6.752;2023-03-01T17:06:20;7.20;68.90
22645;DHT22;11489;50.834;6.752;2023-03-01T17:08:47;7.10;68.80
22645;DHT22;11489;50.834;6.752;2023-03-01T17:11:15;7.00;69.00
22645;DHT22;11489;50.834;6.752;2023-03-01T17:13:42;6.90;69.00
22645;DHT22;11489;50.834;6.752;2023-03-01T17:16:11;6.80;69.10
22645;DHT22;11489;50.834;6.752;2023-03-01T17:18:37;6.70;69.20
22645;DHT22;11489;50.834;6.752;2023-03-01T17:21:04;6.60;69.20
22645;DHT22;11489;50.834;6.752;2023-03-01T17:23:31;6.50;69.20
22645;DHT22;11489;50.834;6.752;2023-03-01T17:25:57;6.50;69.10
22645;DHT22;11489;50.834;6.752;2023-03-01T17:28:25;6.40;69.20
22645;DHT22;11489;50.834;6.752;2023-03-01T17:30:51;6.30;69.10
22645;DHT22;11489;50.834;6.752;2023-03-01T17:33:18;6.30;69.40
22645;DHT22;11489;50.834;6.752;2023-03-01T17:35:44;6.20;69.50
22645;DHT22;11489;50.834;6.752;2023-03-01T17:38:15;6.10;69.50
22645;DHT22;11489;50.834;6.752;2023-03-01T17:40:41;6.00;69.60
22645;DHT22;11489;50.834;6.752;2023-03-01T17:43:08;6.00;69.70
22645;DHT22;11489;50.834;6.752;2023-03-01T17:45:38;5.90;69.80
22645;DHT22;11489;50.834;6.752;2023-03-01T17:48:05;5.80;69.70
22645;DHT22;11489;50.834;6.752;2023-03-01T17:50:31;5.80;70.10
22645;DHT22;11489;50.834;6.752;2023-03-01T17:52:57;5.70;70.10
22645;DHT22;11489;50.834;6.752;2023-03-01T17:55:23;5.70;70.20
22645;DHT22;11489;50.834;6.752;2023-03-01T17:57:49;5.60;70.30
22645;DHT22;11489;50.834;6.752;2023-03-01T18:00:15;5.50;70.10
22645;DHT22;11489;50.834;6.752;2023-03-01T18:02:42;5.50;70.10